sensor_id;sensor_type;location;lat;lon;timestamp;pressure;altitude;pressure_sealevel;temperature;humidity
27643;BME280;15053;48.618;10.024;2022-09-01T00:02:30;94569.13;;;16.45;90.69
27643;BME280;15053;48.618;10.024;2022-09-01T00:04:57;94564.97;;;16.44;90.90
27643;BME280;15053;48.618;10.024;2022-09-01T00:07:28;94564.34;;;16.47;90.95
27643;BME280;15053;48.618;10.024;2022-09-01T00:09:57;94572.66;;;16.49;90.47
27643;BME280;15053;48.618;10.024;2022-09-01T00:12:24;94558.91;;;16.52;90.61
27643;BME280;15053;48.618;10.024;2022-09-01T00:14:51;94563.84;;;16.54;90.52
27643;BME280;15053;48.618;10.024;2022-09-01T00:17:18;94557.81;;;16.53;90.58
27643;BME280;15053;48.618;10.024;2022-09-01T00:19:45;94559.19;;;16.51;90.31
27643;BME280;15053;48.618;10.024;2022-09-01T00:22:11;94560.94;;;16.47;90.34
27643;BME280;15053;48.618;10.024;2022-09-01T00:24:39;94555.22;;;16.45;90.54
27643;BME280;15053;48.618;10.024;2022-09-01T00:27:05;94562.63;;;16.43;90.31
27643;BME280;15053;48.618;10.024;2022-09-01T00:29:32;94556.03;;;16.37;90.22
27643;BME280;15053;48.618;10.024;2022-09-01T00:31:59;94555.44;;;16.31;90.44
27643;BME280;15053;48.618;10.024;2022-09-01T00:34:26;94553.09;;;16.30;90.59
27643;BME280;15053;48.618;10.024;2022-09-01T00:36:53;94545.06;;;16.26;90.64
27643;BME280;15053;48.618;10.024;2022-09-01T00:39:19;94542.44;;;16.26;90.99
27643;BME280;15053;48.618;10.024;2022-09-01T00:41:46;94537.81;;;16.23;91.17
27643;BME280;15053;48.618;10.024;2022-09-01T00:44:16;94532.56;;;16.23;91.21
27643;BME280;15053;48.618;10.024;2022-09-01T00:46:49;94528.38;;;16.22;91.00
27643;BME280;15053;48.618;10.024;2022-09-01T00:52:14;94518.06;;;16.17;91.37
27643;BME280;15053;48.618;10.024;2022-09-01T00:54:48;94525.75;;;16.22;91.38
27643;BME280;15053;48.618;10.024;2022-09-01T00:57:16;94521.28;;;16.23;91.49
27643;BME280;15053;48.618;10.024;2022-09-01T00:59:49;94510.44;;;16.24;91.43
27643;BME280;15053;48.618;10.024;2022-09-01T01:02:17;94508.16;;;16.23;91.38
27643;BME280;15053;48.618;10.024;2022-09-01T01:04:43;94512.28;;;16.24;91.35
27643;BME280;15053;48.618;10.024;2022-09-01T01:07:12;94505.19;;;16.24;91.53
27643;BME280;15053;48.618;10.024;2022-09-01T01:09:41;94507.03;;;16.24;91.27
27643;BME280;15053;48.618;10.024;2022-09-01T01:12:10;94506.28;;;16.23;91.41
27643;BME280;15053;48.618;10.024;2022-09-01T01:14:44;94511.06;;;16.21;91.51
27643;BME280;15053;48.618;10.024;2022-09-01T01:17:11;94508.31;;;16.18;91.05
27643;BME280;15053;48.618;10.024;2022-09-01T01:19:42;94511.69;;;16.18;91.20
27643;BME280;15053;48.618;10.024;2022-09-01T01:28:25;94513.44;;;16.14;91.88
27643;BME280;15053;48.618;10.024;2022-09-01T01:30:59;94514.66;;;16.17;91.45
27643;BME280;15053;48.618;10.024;2022-09-01T01:33:31;94511.25;;;16.16;91.60
27643;BME280;15053;48.618;10.024;2022-09-01T01:35:58;94512.81;;;16.17;91.69
27643;BME280;15053;48.618;10.024;2022-09-01T01:38:27;94509.69;;;16.15;91.74
27643;BME280;15053;48.618;10.024;2022-09-01T01:40:55;94518.84;;;16.18;92.31
27643;BME280;15053;48.618;10.024;2022-09-01T01:43:23;94515.09;;;16.19;92.07
27643;BME280;15053;48.618;10.024;2022-09-01T01:45:53;94518.06;;;16.17;92.05
27643;BME280;15053;48.618;10.024;2022-09-01T01:48:24;94522.53;;;16.17;91.93
27643;BME280;15053;48.618;10.024;2022-09-01T01:50:53;94517.56;;;16.15;92.05
27643;BME280;15053;48.618;10.024;2022-09-01T01:53:21;94516.97;;;16.10;92.11
27643;BME280;15053;48.618;10.024;2022-09-01T01:55:49;94521.16;;;16.11;92.31
27643;BME280;15053;48.618;10.024;2022-09-01T01:58:17;94521.59;;;16.13;92.23
27643;BME280;15053;48.618;10.024;2022-09-01T02:00:47;94518.53;;;16.11;91.97
27643;BME280;15053;48.618;10.024;2022-09-01T02:03:16;94529.38;;;16.09;92.16
27643;BME280;15053;48.618;10.024;2022-09-01T02:05:46;94526.59;;;16.06;92.49
27643;BME280;15053;48.618;10.024;2022-09-01T02:08:14;94525.22;;;16.00;92.28
27643;BME280;15053;48.618;10.024;2022-09-01T02:10:43;94525.38;;;16.03;92.42
27643;BME280;15053;48.618;10.024;2022-09-01T02:13:13;94524.13;;;16.01;92.35
27643;BME280;15053;48.618;10.024;2022-09-01T02:15:46;94523.97;;;15.97;92.62
27643;BME280;15053;48.618;10.024;2022-09-01T02:18:20;94518.28;;;15.95;92.57
27643;BME280;15053;48.618;10.024;2022-09-01T02:20:48;94530.19;;;15.92;92.85
27643;BME280;15053;48.618;10.024;2022-09-01T02:23:17;94522.59;;;15.91;92.92
27643;BME280;15053;48.618;10.024;2022-09-01T02:25:51;94513.19;;;15.90;93.04
27643;BME280;15053;48.618;10.024;2022-09-01T02:28:39;94513.81;;;15.87;93.50
27643;BME280;15053;48.618;10.024;2022-09-01T02:31:09;94508.84;;;15.85;93.60
27643;BME280;15053;48.618;10.024;2022-09-01T02:33:39;94506.72;;;15.87;93.73
27643;BME280;15053;48.618;10.024;2022-09-01T02:36:10;94504.84;;;15.88;93.77
27643;BME280;15053;48.618;10.024;2022-09-01T02:38:40;94503.31;;;15.87;93.70
27643;BME280;15053;48.618;10.024;2022-09-01T02:41:19;94500.19;;;15.85;93.50
27643;BME280;15053;48.618;10.024;2022-09-01T02:43:49;94503.94;;;15.84;93.77
27643;BME280;15053;48.618;10.024;2022-09-01T02:46:16;94490.81;;;15.75;93.59
27643;BME280;15053;48.618;10.024;2022-09-01T02:48:51;94504.22;;;15.82;94.12
27643;BME280;15053;48.618;10.024;2022-09-01T02:51:21;94503.47;;;15.82;94.00
27643;BME280;15053;48.618;10.024;2022-09-01T02:53:49;94510.09;;;15.79;93.75
27643;BME280;15053;48.618;10.024;2022-09-01T02:56:20;94507.34;;;15.76;93.81
27643;BME280;15053;48.618;10.024;2022-09-01T02:58:52;94502.72;;;15.73;94.33
27643;BME280;15053;48.618;10.024;2022-09-01T03:01:25;94498.53;;;15.72;94.30
27643;BME280;15053;48.618;10.024;2022-09-01T03:03:58;94499.63;;;15.71;94.46
27643;BME280;15053;48.618;10.024;2022-09-01T03:06:27;94504.41;;;15.69;94.56
27643;BME280;15053;48.618;10.024;2022-09-01T03:08:56;94498.72;;;15.67;94.75
27643;BME280;15053;48.618;10.024;2022-09-01T03:11:28;94498.72;;;15.67;94.88
27643;BME280;15053;48.618;10.024;2022-09-01T03:13:55;94490.66;;;15.63;94.96
27643;BME280;15053;48.618;10.024;2022-09-01T03:16:22;94489.75;;;15.68;95.03
27643;BME280;15053;48.618;10.024;2022-09-01T03:18:50;94492.84;;;15.70;94.81
27643;BME280;15053;48.618;10.024;2022-09-01T03:21:19;94496.53;;;15.69;94.96
27643;BME280;15053;48.618;10.024;2022-09-01T03:23:47;94504.91;;;15.71;95.67
27643;BME280;15053;48.618;10.024;2022-09-01T03:26:14;94499.03;;;15.74;94.99
27643;BME280;15053;48.618;10.024;2022-09-01T03:28:45;94503.94;;;15.75;95.26
27643;BME280;15053;48.618;10.024;2022-09-01T03:31:12;94494.22;;;15.76;94.71
27643;BME280;15053;48.618;10.024;2022-09-01T03:33:40;94498.06;;;15.78;94.88
27643;BME280;15053;48.618;10.024;2022-09-01T03:36:15;94502.38;;;15.83;94.64
27643;BME280;15053;48.618;10.024;2022-09-01T03:38:47;94499.75;;;15.83;94.68
27643;BME280;15053;48.618;10.024;2022-09-01T03:41:18;94491.56;;;15.84;94.56
27643;BME280;15053;48.618;10.024;2022-09-01T03:43:47;94502.38;;;15.83;94.33
27643;BME280;15053;48.618;10.024;2022-09-01T03:46:16;94497.44;;;15.81;94.39
27643;BME280;15053;48.618;10.024;2022-09-01T03:48:54;94500.84;;;15.82;94.49
27643;BME280;15053;48.618;10.024;2022-09-01T03:51:25;94497.56;;;15.85;94.56
27643;BME280;15053;48.618;10.024;2022-09-01T03:53:53;94492.03;;;15.86;94.35
27643;BME280;15053;48.618;10.024;2022-09-01T03:56:26;94491.69;;;15.88;94.36
27643;BME280;15053;48.618;10.024;2022-09-01T03:58:56;94490.19;;;15.87;94.37
27643;BME280;15053;48.618;10.024;2022-09-01T04:01:25;94490.19;;;15.87;94.27
27643;BME280;15053;48.618;10.024;2022-09-01T04:03:53;94490.19;;;15.87;94.35
27643;BME280;15053;48.618;10.024;2022-09-01T04:06:23;94486.94;;;15.90;94.60
27643;BME280;15053;48.618;10.024;2022-09-01T04:08:51;94486.31;;;15.93;94.17
27643;BME280;15053;48.618;10.024;2022-09-01T04:11:23;94490.91;;;15.96;94.19
27643;BME280;15053;48.618;10.024;2022-09-01T04:13:51;94493.53;;;15.96;94.06
27643;BME280;15053;48.618;10.024;2022-09-01T04:16:24;94481.16;;;15.97;94.23
27643;BME280;15053;48.618;10.024;2022-09-01T04:19:11;94489.81;;;15.97;94.11
27643;BME280;15053;48.618;10.024;2022-09-01T04:21:47;94487.19;;;15.97;94.00
27643;BME280;15053;48.618;10.024;2022-09-01T04:24:18;94482.88;;;16.01;94.24
27643;BME280;15053;48.618;10.024;2022-09-01T04:26:46;94483.00;;;16.05;94.07
27643;BME280;15053;48.618;10.024;2022-09-01T04:29:16;94490.25;;;16.08;93.89
27643;BME280;15053;48.618;10.024;2022-09-01T04:31:59;94489.94;;;16.09;93.62
27643;BME280;15053;48.618;10.024;2022-09-01T04:34:33;94484.38;;;16.11;93.63
27643;BME280;15053;48.618;10.024;2022-09-01T04:37:18;94484.19;;;16.16;93.39
27643;BME280;15053;48.618;10.024;2022-09-01T04:39:53;94489.16;;;16.17;93.38
27643;BME280;15053;48.618;10.024;2022-09-01T04:42:25;94485.75;;;16.17;93.13
27643;BME280;15053;48.618;10.024;2022-09-01T04:44:54;94489.25;;;16.21;92.98
27643;BME280;15053;48.618;10.024;2022-09-01T04:47:23;94485.25;;;16.23;92.60
27643;BME280;15053;48.618;10.024;2022-09-01T04:50:07;94488.19;;;16.22;92.55
27643;BME280;15053;48.618;10.024;2022-09-01T04:53:03;94490.53;;;16.23;92.37
27643;BME280;15053;48.618;10.024;2022-09-01T04:55:45;94487.72;;;16.28;92.34
27643;BME280;15053;48.618;10.024;2022-09-01T04:58:17;94492.34;;;16.31;92.28
27643;BME280;15053;48.618;10.024;2022-09-01T05:00:46;94488.00;;;16.27;92.22
27643;BME280;15053;48.618;10.024;2022-09-01T05:03:22;94493.59;;;16.25;92.00
27643;BME280;15053;48.618;10.024;2022-09-01T05:05:55;94487.41;;;16.21;92.12
27643;BME280;15053;48.618;10.024;2022-09-01T05:08:23;94491.59;;;16.22;92.32
27643;BME280;15053;48.618;10.024;2022-09-01T05:10:56;94492.66;;;16.21;92.30
27643;BME280;15053;48.618;10.024;2022-09-01T05:13:34;94479.72;;;16.16;92.34
27643;BME280;15053;48.618;10.024;2022-09-01T05:16:06;94483.88;;;16.17;92.35
27643;BME280;15053;48.618;10.024;2022-09-01T05:18:43;94485.25;;;16.23;92.31
27643;BME280;15053;48.618;10.024;2022-09-01T05:21:17;94489.75;;;16.23;92.14
27643;BME280;15053;48.618;10.024;2022-09-01T05:23:47;94488.53;;;16.20;92.36
27643;BME280;15053;48.618;10.024;2022-09-01T05:26:20;94493.94;;;16.15;92.21
27643;BME280;15053;48.618;10.024;2022-09-01T05:28:52;94491.19;;;16.12;92.32
27643;BME280;15053;48.618;10.024;2022-09-01T05:31:20;94496.72;;;16.10;92.20
27643;BME280;15053;48.618;10.024;2022-09-01T05:33:49;94500.47;;;16.09;92.69
27643;BME280;15053;48.618;10.024;2022-09-01T05:36:20;94491.19;;;16.12;92.80
27643;BME280;15053;48.618;10.024;2022-09-01T05:38:51;94492.56;;;16.18;92.83
27643;BME280;15053;48.618;10.024;2022-09-01T05:41:19;94497.94;;;16.21;92.74
27643;BME280;15053;48.618;10.024;2022-09-01T05:43:48;94497.16;;;16.21;92.73
27643;BME280;15053;48.618;10.024;2022-09-01T05:46:24;94495.63;;;16.20;92.64
27643;BME280;15053;48.618;10.024;2022-09-01T05:48:53;94495.13;;;16.26;92.58
27643;BME280;15053;48.618;10.024;2022-09-01T05:51:24;94498.34;;;16.32;92.57
27643;BME280;15053;48.618;10.024;2022-09-01T05:54:11;94506.56;;;16.30;91.97
27643;BME280;15053;48.618;10.024;2022-09-01T05:56:41;94505.47;;;16.31;92.09
27643;BME280;15053;48.618;10.024;2022-09-01T05:59:14;94493.88;;;16.32;92.03
27643;BME280;15053;48.618;10.024;2022-09-01T06:01:52;94501.72;;;16.41;91.77
27643;BME280;15053;48.618;10.024;2022-09-01T06:04:21;94499.69;;;16.46;91.51
27643;BME280;15053;48.618;10.024;2022-09-01T06:06:52;94502.13;;;16.51;91.19
27643;BME280;15053;48.618;10.024;2022-09-01T06:09:40;94510.50;;;16.53;90.70
27643;BME280;15053;48.618;10.024;2022-09-01T06:12:08;94490.69;;;16.56;90.45
27643;BME280;15053;48.618;10.024;2022-09-01T06:14:45;94496.06;;;16.60;90.15
27643;BME280;15053;48.618;10.024;2022-09-01T06:17:14;94495.88;;;16.65;89.52
27643;BME280;15053;48.618;10.024;2022-09-01T06:19:45;94499.00;;;16.67;89.01
27643;BME280;15053;48.618;10.024;2022-09-01T06:22:12;94498.53;;;16.65;88.99
27643;BME280;15053;48.618;10.024;2022-09-01T06:24:39;94497.78;;;16.64;88.72
27643;BME280;15053;48.618;10.024;2022-09-01T06:27:10;94497.00;;;16.64;88.48
27643;BME280;15053;48.618;10.024;2022-09-01T06:29:38;94504.75;;;16.60;88.31
27643;BME280;15053;48.618;10.024;2022-09-01T06:32:08;94503.34;;;16.63;88.43
27643;BME280;15053;48.618;10.024;2022-09-01T06:34:41;94494.19;;;16.69;88.58
27643;BME280;15053;48.618;10.024;2022-09-01T06:37:10;94500.34;;;16.73;88.46
27643;BME280;15053;48.618;10.024;2022-09-01T06:39:40;94499.53;;;16.81;88.30
27643;BME280;15053;48.618;10.024;2022-09-01T06:42:06;94493.59;;;16.84;87.96
27643;BME280;15053;48.618;10.024;2022-09-01T06:44:46;94497.78;;;16.85;87.82
27643;BME280;15053;48.618;10.024;2022-09-01T06:47:13;94503.19;;;16.88;87.62
27643;BME280;15053;48.618;10.024;2022-09-01T06:49:41;94501.63;;;16.87;87.21
27643;BME280;15053;48.618;10.024;2022-09-01T06:52:13;94502.75;;;16.86;87.23
27643;BME280;15053;48.618;10.024;2022-09-01T06:54:41;94503.50;;;16.87;86.99
27643;BME280;15053;48.618;10.024;2022-09-01T06:57:10;94505.50;;;16.90;86.74
27643;BME280;15053;48.618;10.024;2022-09-01T06:59:56;94511.66;;;16.94;86.76
27643;BME280;15053;48.618;10.024;2022-09-01T07:02:23;94508.41;;;16.97;86.33
27643;BME280;15053;48.618;10.024;2022-09-01T07:05:15;94516.75;;;16.99;85.96
27643;BME280;15053;48.618;10.024;2022-09-01T07:08:07;94517.19;;;17.01;85.43
27643;BME280;15053;48.618;10.024;2022-09-01T07:11:02;94517.50;;;16.99;84.69
27643;BME280;15053;48.618;10.024;2022-09-01T07:13:55;94515.81;;;16.95;84.38
27643;BME280;15053;48.618;10.024;2022-09-01T07:16:42;94517.13;;;16.89;84.71
27643;BME280;15053;48.618;10.024;2022-09-01T07:19:19;94525.47;;;16.91;84.63
27643;BME280;15053;48.618;10.024;2022-09-01T07:21:55;94523.91;;;16.90;84.83
27643;BME280;15053;48.618;10.024;2022-09-01T07:24:45;94525.31;;;16.87;84.80
27643;BME280;15053;48.618;10.024;2022-09-01T07:27:39;94527.50;;;16.85;84.93
27643;BME280;15053;48.618;10.024;2022-09-01T07:30:08;94523.03;;;16.86;85.03
27643;BME280;15053;48.618;10.024;2022-09-01T07:32:36;94523.13;;;16.89;84.88
27643;BME280;15053;48.618;10.024;2022-09-01T07:35:25;94525.47;;;16.91;84.91
27643;BME280;15053;48.618;10.024;2022-09-01T07:37:51;94533.50;;;16.94;84.61
27643;BME280;15053;48.618;10.024;2022-09-01T07:40:41;94533.44;;;17.03;84.13
27643;BME280;15053;48.618;10.024;2022-09-01T07:43:43;94543.78;;;17.08;82.97
27643;BME280;15053;48.618;10.024;2022-09-01T07:46:29;94534.34;;;17.07;82.48
27643;BME280;15053;48.618;10.024;2022-09-01T07:49:06;94545.44;;;17.13;81.82
27643;BME280;15053;48.618;10.024;2022-09-01T07:51:53;94535.75;;;17.25;81.49
27643;BME280;15053;48.618;10.024;2022-09-01T07:54:20;94538.94;;;17.31;81.04
27643;BME280;15053;48.618;10.024;2022-09-01T07:56:50;94544.34;;;17.34;80.94
27643;BME280;15053;48.618;10.024;2022-09-01T07:59:18;94546.59;;;17.44;81.44
27643;BME280;15053;48.618;10.024;2022-09-01T08:02:00;94547.91;;;17.59;80.64
27643;BME280;15053;48.618;10.024;2022-09-01T08:04:31;94550.88;;;17.57;80.34
27643;BME280;15053;48.618;10.024;2022-09-01T08:07:00;94549.75;;;17.58;80.35
27643;BME280;15053;48.618;10.024;2022-09-01T08:09:28;94559.41;;;17.54;79.71
27643;BME280;15053;48.618;10.024;2022-09-01T08:12:06;94556.31;;;17.52;79.84
27643;BME280;15053;48.618;10.024;2022-09-01T08:14:50;94550.78;;;17.45;79.90
27643;BME280;15053;48.618;10.024;2022-09-01T08:17:39;94556.69;;;17.42;79.74
27643;BME280;15053;48.618;10.024;2022-09-01T08:20:24;94562.16;;;17.37;79.94
27643;BME280;15053;48.618;10.024;2022-09-01T08:22:55;94561.06;;;17.38;80.10
27643;BME280;15053;48.618;10.024;2022-09-01T08:25:40;94562.22;;;17.49;80.52
27643;BME280;15053;48.618;10.024;2022-09-01T08:28:07;94560.94;;;17.55;80.24
27643;BME280;15053;48.618;10.024;2022-09-01T08:30:39;94560.19;;;17.55;79.58
27643;BME280;15053;48.618;10.024;2022-09-01T08:33:19;94555.22;;;17.53;79.98
27643;BME280;15053;48.618;10.024;2022-09-01T08:35:47;94566.47;;;17.62;80.18
27643;BME280;15053;48.618;10.024;2022-09-01T08:38:15;94570.31;;;17.65;79.85
27643;BME280;15053;48.618;10.024;2022-09-01T08:40:50;94570.47;;;17.68;79.77
27643;BME280;15053;48.618;10.024;2022-09-01T08:46:28;94573.53;;;17.71;79.59
27643;BME280;15053;48.618;10.024;2022-09-01T08:49:00;94576.03;;;17.67;79.59
27643;BME280;15053;48.618;10.024;2022-09-01T08:52:16;94577.00;;;17.62;79.63
27643;BME280;15053;48.618;10.024;2022-09-01T08:54:56;94585.56;;;17.59;79.51
27643;BME280;15053;48.618;10.024;2022-09-01T08:57:31;94582.66;;;17.52;79.94
27643;BME280;15053;48.618;10.024;2022-09-01T09:00:25;94581.09;;;17.51;80.09
27643;BME280;15053;48.618;10.024;2022-09-01T09:03:10;94587.00;;;17.48;80.42
27643;BME280;15053;48.618;10.024;2022-09-01T09:14:36;94591.53;;;17.68;80.18
27643;BME280;15053;48.618;10.024;2022-09-01T09:17:04;94590.09;;;17.92;79.97
27643;BME280;15053;48.618;10.024;2022-09-01T09:19:34;94589.81;;;18.05;79.58
27643;BME280;15053;48.618;10.024;2022-09-01T09:22:04;94593.91;;;18.15;78.96
27643;BME280;15053;48.618;10.024;2022-09-01T09:24:52;94591.84;;;18.20;78.81
27643;BME280;15053;48.618;10.024;2022-09-01T09:27:35;94592.50;;;18.17;78.50
27643;BME280;15053;48.618;10.024;2022-09-01T09:30:11;94592.13;;;18.07;78.48
27643;BME280;15053;48.618;10.024;2022-09-01T09:32:58;94586.50;;;17.96;78.45
27643;BME280;15053;48.618;10.024;2022-09-01T09:35:46;94588.50;;;17.79;78.36
27643;BME280;15053;48.618;10.024;2022-09-01T09:41:19;94591.56;;;17.81;78.88
27643;BME280;15053;48.618;10.024;2022-09-01T09:44:02;94594.47;;;17.88;78.93
27643;BME280;15053;48.618;10.024;2022-09-01T09:46:38;94587.25;;;17.97;78.78
27643;BME280;15053;48.618;10.024;2022-09-01T09:51:43;94579.19;;;18.14;76.83
27643;BME280;15053;48.618;10.024;2022-09-01T09:54:18;94585.78;;;18.20;75.95
27643;BME280;15053;48.618;10.024;2022-09-01T09:56:46;94589.50;;;18.19;75.66
27643;BME280;15053;48.618;10.024;2022-09-01T09:59:32;94585.91;;;18.23;75.17
27643;BME280;15053;48.618;10.024;2022-09-01T10:02:34;94590.69;;;18.42;74.82
27643;BME280;15053;48.618;10.024;2022-09-01T10:07:51;94582.94;;;18.70;73.32
27643;BME280;15053;48.618;10.024;2022-09-01T10:10:28;94588.13;;;18.78;72.57
27643;BME280;15053;48.618;10.024;2022-09-01T10:12:56;94588.19;;;18.82;71.89
27643;BME280;15053;48.618;10.024;2022-09-01T10:15:27;94587.91;;;18.83;72.05
27643;BME280;15053;48.618;10.024;2022-09-01T10:18:01;94588.53;;;18.80;71.97
27643;BME280;15053;48.618;10.024;2022-09-01T10:20:58;94586.66;;;18.69;72.47
27643;BME280;15053;48.618;10.024;2022-09-01T10:23:29;94592.03;;;18.60;72.94
27643;BME280;15053;48.618;10.024;2022-09-01T10:26:03;94594.59;;;18.57;73.40
27643;BME280;15053;48.618;10.024;2022-09-01T10:28:39;94588.31;;;18.61;73.62
27643;BME280;15053;48.618;10.024;2022-09-01T10:31:15;94589.75;;;18.71;74.08
27643;BME280;15053;48.618;10.024;2022-09-01T10:33:42;94587.56;;;18.85;73.92
27643;BME280;15053;48.618;10.024;2022-09-01T10:36:10;94580.97;;;19.03;73.56
27643;BME280;15053;48.618;10.024;2022-09-01T10:38:41;94579.91;;;19.32;72.97
27643;BME280;15053;48.618;10.024;2022-09-01T10:41:54;94585.34;;;19.75;72.62
27643;BME280;15053;48.618;10.024;2022-09-01T10:44:27;94576.41;;;20.08;71.49
27643;BME280;15053;48.618;10.024;2022-09-01T10:46:59;94577.00;;;20.44;68.21
27643;BME280;15053;48.618;10.024;2022-09-01T10:51:58;94568.91;;;20.53;65.56
27643;BME280;15053;48.618;10.024;2022-09-01T10:59:53;94570.94;;;20.44;64.86
27643;BME280;15053;48.618;10.024;2022-09-01T11:02:23;94580.94;;;20.35;64.48
27643;BME280;15053;48.618;10.024;2022-09-01T11:13:21;94579.50;;;19.82;66.94
27643;BME280;15053;48.618;10.024;2022-09-01T11:15:50;94577.75;;;19.74;67.51
27643;BME280;15053;48.618;10.024;2022-09-01T11:18:25;94576.22;;;19.73;68.22
27643;BME280;15053;48.618;10.024;2022-09-01T11:20:53;94579.50;;;19.82;67.59
27643;BME280;15053;48.618;10.024;2022-09-01T11:23:26;94581.56;;;19.88;67.36
27643;BME280;15053;48.618;10.024;2022-09-01T11:25:58;94580.13;;;19.91;67.09
27643;BME280;15053;48.618;10.024;2022-09-01T11:28:45;94571.81;;;20.05;66.88
27643;BME280;15053;48.618;10.024;2022-09-01T11:31:21;94570.28;;;20.19;66.36
27643;BME280;15053;48.618;10.024;2022-09-01T11:42:00;94566.66;;;21.02;62.85
27643;BME280;15053;48.618;10.024;2022-09-01T11:47:08;94566.97;;;21.51;61.69
27643;BME280;15053;48.618;10.024;2022-09-01T11:49:49;94559.59;;;21.60;60.77
27643;BME280;15053;48.618;10.024;2022-09-01T11:52:19;94551.06;;;21.51;60.44
27643;BME280;15053;48.618;10.024;2022-09-01T11:54:47;94553.72;;;21.51;60.87
27643;BME280;15053;48.618;10.024;2022-09-01T11:59:43;94561.44;;;21.75;60.58
27643;BME280;15053;48.618;10.024;2022-09-01T12:02:17;94550.63;;;21.84;60.45
27643;BME280;15053;48.618;10.024;2022-09-01T12:04:45;94551.22;;;22.15;59.69
27643;BME280;15053;48.618;10.024;2022-09-01T12:07:24;94550.59;;;22.22;58.31
27643;BME280;15053;48.618;10.024;2022-09-01T12:09:52;94552.88;;;22.23;58.08
27643;BME280;15053;48.618;10.024;2022-09-01T12:12:36;94554.72;;;22.19;56.90
27643;BME280;15053;48.618;10.024;2022-09-01T12:15:24;94546.22;;;22.10;56.82
27643;BME280;15053;48.618;10.024;2022-09-01T12:17:51;94540.31;;;22.20;57.03
27643;BME280;15053;48.618;10.024;2022-09-01T12:22:56;94546.22;;;22.56;55.87
27643;BME280;15053;48.618;10.024;2022-09-01T12:27:53;94524.63;;;22.80;54.70
27643;BME280;15053;48.618;10.024;2022-09-01T12:30:21;94538.56;;;22.96;54.30
27643;BME280;15053;48.618;10.024;2022-09-01T12:32:48;94537.88;;;23.03;54.21
27643;BME280;15053;48.618;10.024;2022-09-01T12:35:20;94535.59;;;23.01;53.98
27643;BME280;15053;48.618;10.024;2022-09-01T12:37:47;94533.69;;;23.02;54.18
27643;BME280;15053;48.618;10.024;2022-09-01T12:40:40;94536.84;;;23.11;54.28
27643;BME280;15053;48.618;10.024;2022-09-01T12:43:07;94539.81;;;23.06;54.41
27643;BME280;15053;48.618;10.024;2022-09-01T12:45:43;94539.66;;;22.95;54.09
27643;BME280;15053;48.618;10.024;2022-09-01T12:51:01;94536.19;;;22.91;54.46
27643;BME280;15053;48.618;10.024;2022-09-01T12:53:30;94539.97;;;22.90;54.22
27643;BME280;15053;48.618;10.024;2022-09-01T12:56:16;94540.41;;;22.69;53.84
27643;BME280;15053;48.618;10.024;2022-09-01T12:58:49;94543.25;;;22.61;54.37
27643;BME280;15053;48.618;10.024;2022-09-01T13:01:26;94541.69;;;22.56;54.46
27643;BME280;15053;48.618;10.024;2022-09-01T13:04:28;94541.97;;;22.51;53.93
27643;BME280;15053;48.618;10.024;2022-09-01T13:07:01;94536.56;;;22.44;53.93
27643;BME280;15053;48.618;10.024;2022-09-01T13:09:27;94535.09;;;22.47;54.02
27643;BME280;15053;48.618;10.024;2022-09-01T13:12:09;94528.25;;;22.46;54.38
27643;BME280;15053;48.618;10.024;2022-09-01T13:14:36;94531.78;;;22.53;54.41
27643;BME280;15053;48.618;10.024;2022-09-01T13:17:03;94536.75;;;22.55;54.63
27643;BME280;15053;48.618;10.024;2022-09-01T13:19:30;94529.59;;;22.59;54.57
27643;BME280;15053;48.618;10.024;2022-09-01T13:21:57;94533.38;;;22.58;54.78
27643;BME280;15053;48.618;10.024;2022-09-01T13:24:24;94527.28;;;22.57;54.93
27643;BME280;15053;48.618;10.024;2022-09-01T13:26:56;94524.47;;;22.69;54.69
27643;BME280;15053;48.618;10.024;2022-09-01T13:29:43;94536.44;;;22.60;54.60
27643;BME280;15053;48.618;10.024;2022-09-01T13:32:11;94525.94;;;22.44;54.63
27643;BME280;15053;48.618;10.024;2022-09-01T13:34:48;94525.69;;;22.53;54.89
27643;BME280;15053;48.618;10.024;2022-09-01T13:37:17;94519.63;;;22.52;54.73
27643;BME280;15053;48.618;10.024;2022-09-01T13:39:44;94525.81;;;22.60;54.83
27643;BME280;15053;48.618;10.024;2022-09-01T13:42:12;94521.00;;;22.65;53.97
27643;BME280;15053;48.618;10.024;2022-09-01T13:44:41;94520.69;;;22.70;53.93
27643;BME280;15053;48.618;10.024;2022-09-01T13:47:09;94520.13;;;23.10;54.68
27643;BME280;15053;48.618;10.024;2022-09-01T13:49:56;94515.63;;;23.40;53.47
27643;BME280;15053;48.618;10.024;2022-09-01T13:52:47;94513.19;;;23.28;53.05
27643;BME280;15053;48.618;10.024;2022-09-01T13:55:27;94513.38;;;23.16;52.45
27643;BME280;15053;48.618;10.024;2022-09-01T13:57:54;94510.63;;;23.09;52.87
27643;BME280;15053;48.618;10.024;2022-09-01T14:00:25;94519.66;;;23.01;53.29
27643;BME280;15053;48.618;10.024;2022-09-01T14:02:56;94511.72;;;22.78;53.53
27643;BME280;15053;48.618;10.024;2022-09-01T14:05:29;94513.25;;;22.57;54.26
27643;BME280;15053;48.618;10.024;2022-09-01T14:07:56;94495.06;;;22.36;54.58
27643;BME280;15053;48.618;10.024;2022-09-01T14:10:25;94510.13;;;22.28;54.59
27643;BME280;15053;48.618;10.024;2022-09-01T14:12:52;94504.00;;;22.24;54.79
27643;BME280;15053;48.618;10.024;2022-09-01T14:15:20;94500.22;;;22.25;55.26
27643;BME280;15053;48.618;10.024;2022-09-01T14:17:54;94506.66;;;22.24;55.40
27643;BME280;15053;48.618;10.024;2022-09-01T14:20:29;94504.00;;;22.24;55.43
27643;BME280;15053;48.618;10.024;2022-09-01T14:23:03;94503.41;;;22.34;55.05
27643;BME280;15053;48.618;10.024;2022-09-01T14:25:30;94502.75;;;22.41;54.00
27643;BME280;15053;48.618;10.024;2022-09-01T14:27:56;94500.44;;;22.40;54.08
27643;BME280;15053;48.618;10.024;2022-09-01T14:30:25;94496.56;;;22.33;53.59